createdAt,value
2022-11-10T00:04:25.420Z,57.22
2022-11-10T00:09:27.421Z,59.70
2022-11-10T00:14:47.727Z,43.92
2022-11-10T00:19:49.740Z,43.72
2022-11-10T00:24:51.801Z,48.35
2022-11-10T00:29:53.935Z,49.65
2022-11-10T00:34:55.977Z,52.20
2022-11-10T00:39:57.992Z,49.03
2022-11-10T00:44:59.950Z,45.70
2022-11-10T00:50:02.063Z,46.92
2022-11-10T00:55:04.388Z,33.63
2022-11-10T01:00:07.095Z,43.30
2022-11-10T01:05:09.465Z,45.38
2022-11-10T01:15:13.395Z,32.35
2022-11-10T01:20:15.539Z,42.47
2022-11-10T01:25:17.667Z,50.20
2022-11-10T01:30:20.012Z,48.97
2022-11-10T01:40:24.265Z,42.97
2022-11-10T01:45:26.191Z,38.47
2022-11-10T01:50:32.823Z,47.50
2022-11-10T01:55:37.673Z,49.72
2022-11-10T02:05:56.944Z,44.20
2022-11-10T02:10:58.916Z,44.58
2022-11-10T02:16:01.199Z,47.67
2022-11-10T02:21:07.707Z,56.00
2022-11-10T02:26:09.743Z,52.78
2022-11-10T02:31:11.836Z,53.75
2022-11-10T02:36:14.120Z,45.97
2022-11-10T02:41:16.123Z,55.20
2022-11-10T02:46:18.152Z,46.78
2022-11-10T02:51:20.257Z,53.15
2022-11-10T02:56:22.243Z,51.63
2022-11-10T03:01:24.351Z,53.17
2022-11-10T03:06:26.447Z,49.97
2022-11-10T03:11:32.242Z,46.75
2022-11-10T03:16:34.611Z,50.45
2022-11-10T03:21:36.559Z,46.55
2022-11-10T03:26:38.519Z,51.53
2022-11-10T03:31:40.500Z,52.65
2022-11-10T03:36:42.528Z,47.00
2022-11-10T03:41:44.578Z,44.10
2022-11-10T03:46:51.317Z,47.55
2022-11-10T03:51:53.659Z,55.17
2022-11-10T03:56:55.672Z,48.47
2022-11-10T04:01:57.727Z,50.55
2022-11-10T04:07:18.040Z,54.78
2022-11-10T04:17:40.117Z,42.55
2022-11-10T04:23:00.523Z,49.63
2022-11-10T04:33:04.317Z,39.42
2022-11-10T04:38:06.316Z,46.83
2022-11-10T04:43:08.672Z,45.55
2022-11-10T04:53:12.500Z,27.15
2022-11-10T04:58:15.260Z,51.25
2022-11-10T05:03:17.261Z,47.72
2022-11-10T05:08:19.300Z,48.20
2022-11-10T05:13:21.672Z,43.15
2022-11-10T05:18:24.968Z,55.50
2022-11-10T05:23:39.173Z,48.67
2022-11-10T05:28:42.836Z,50.58
2022-11-10T05:33:44.936Z,40.40
2022-11-10T05:38:46.912Z,53.80
2022-11-10T05:43:49.441Z,35.38
2022-11-10T05:48:51.447Z,39.92
2022-11-10T05:53:53.459Z,49.30
2022-11-10T05:58:55.462Z,37.63
2022-11-10T06:03:57.538Z,41.35
2022-11-10T06:09:00.190Z,36.65
2022-11-10T06:14:02.466Z,23.23
2022-11-10T06:24:06.662Z,41.05
2022-11-10T06:34:10.477Z,44.60
2022-11-10T06:39:12.578Z,29.30
2022-11-10T06:44:14.568Z,14.07
2022-11-10T06:49:16.560Z,27.83
2022-11-10T06:54:18.687Z,39.70
2022-11-10T06:59:20.697Z,36.30
2022-11-10T07:04:22.823Z,42.22
2022-11-10T07:09:24.837Z,37.78
2022-11-10T07:14:26.813Z,30.73
2022-11-10T07:19:28.880Z,33.78
2022-11-10T07:24:30.952Z,39.10
2022-11-10T07:29:32.907Z,32.42
2022-11-10T07:34:34.871Z,30.65
2022-11-10T07:39:36.879Z,35.40
2022-11-10T07:44:38.836Z,34.17
2022-11-10T07:49:40.871Z,27.02
2022-11-10T07:54:43.060Z,34.15
2022-11-10T07:59:45.067Z,33.47
2022-11-10T08:04:47.056Z,30.67
2022-11-10T08:09:49.086Z,19.90
2022-11-10T08:14:51.118Z,27.45
2022-11-10T08:19:53.170Z,30.27
2022-11-10T08:24:55.508Z,30.85
2022-11-10T08:29:58.314Z,28.75
2022-11-10T08:35:00.344Z,20.75
2022-11-10T08:40:02.337Z,41.25
2022-11-10T08:45:04.680Z,34.55
2022-11-10T08:50:07.992Z,17.45
2022-11-10T08:55:10.142Z,25.13
2022-11-10T09:00:13.356Z,23.00
2022-11-10T09:05:15.387Z,13.98
2022-11-10T09:10:17.805Z,20.27
2022-11-10T09:15:20.288Z,12.73
2022-11-10T09:20:22.398Z,22.40
2022-11-10T09:30:26.763Z,19.48
2022-11-10T09:35:29.145Z,15.00
2022-11-10T09:40:52.175Z,17.42
2022-11-10T09:45:58.321Z,17.30
2022-11-10T09:51:10.327Z,16.05
2022-11-10T09:56:21.824Z,14.38
2022-11-10T10:01:36.271Z,12.75
2022-11-10T10:07:11.390Z,15.50
2022-11-10T10:12:55.284Z,13.30
2022-11-10T10:18:03.349Z,19.20
2022-11-10T10:28:31.489Z,14.18
2022-11-10T10:33:33.498Z,13.30
2022-11-10T10:43:46.622Z,10.43
2022-11-10T10:49:27.272Z,10.63
2022-11-10T10:54:31.192Z,10.93
2022-11-10T10:59:34.592Z,14.15
2022-11-10T11:04:38.401Z,8.48
2022-11-10T11:09:43.335Z,10.63
2022-11-10T11:14:46.330Z,9.20
2022-11-10T11:19:59.875Z,9.68
2022-11-10T11:25:08.085Z,12.52
2022-11-10T11:30:17.887Z,13.30
2022-11-10T11:35:38.189Z,10.95
2022-11-10T11:40:46.975Z,7.47
2022-11-10T11:46:04.177Z,10.13
2022-11-10T11:51:06.225Z,11.38
2022-11-10T12:01:34.333Z,9.98
2022-11-10T12:06:55.310Z,12.65
2022-11-10T12:12:26.275Z,12.05
2022-11-10T12:17:59.157Z,12.85
2022-11-10T12:23:34.771Z,11.52
2022-11-10T12:28:45.321Z,16.45
2022-11-10T12:34:02.199Z,12.00
2022-11-10T12:39:15.419Z,10.05
2022-11-10T12:44:27.611Z,11.63
2022-11-10T12:49:32.938Z,11.57
2022-11-10T12:54:36.357Z,8.80
2022-11-10T12:59:41.701Z,11.27
2022-11-10T13:04:43.877Z,6.93
2022-11-10T13:09:46.711Z,6.00
2022-11-10T13:14:49.359Z,6.78
2022-11-10T13:19:53.298Z,7.22
2022-11-10T13:25:33.420Z,4.25
2022-11-10T13:30:39.796Z,4.22
2022-11-10T13:35:41.850Z,4.75
2022-11-10T13:45:47.983Z,4.25
2022-11-10T13:51:07.461Z,4.43
2022-11-10T13:56:36.827Z,4.55
2022-11-10T14:01:39.201Z,8.10
2022-11-10T14:06:55.271Z,9.70
2022-11-10T14:12:02.925Z,12.10
2022-11-10T14:17:13.682Z,11.27
2022-11-10T14:22:36.226Z,20.25
2022-11-10T14:27:39.059Z,17.40
2022-11-10T14:32:41.212Z,26.75
2022-11-10T14:37:43.913Z,29.58
2022-11-10T14:42:47.985Z,34.33
2022-11-10T14:48:00.706Z,33.22
2022-11-10T14:53:24.675Z,17.38
2022-11-10T14:58:39.266Z,11.93
2022-11-10T15:03:43.130Z,8.95
2022-11-10T15:08:45.166Z,14.30
2022-11-10T15:13:47.215Z,15.23
2022-11-10T15:18:51.331Z,19.88
2022-11-10T15:23:56.326Z,16.88
2022-11-10T15:28:59.147Z,19.25
2022-11-10T15:34:05.004Z,18.90
2022-11-10T15:39:12.955Z,17.50
2022-11-10T15:44:19.910Z,13.48
2022-11-10T15:49:21.948Z,14.60
2022-11-10T15:54:27.871Z,20.02
2022-11-10T15:59:30.289Z,27.05
2022-11-10T16:04:32.284Z,24.67
2022-11-10T16:09:36.704Z,23.13
2022-11-10T16:14:39.404Z,18.75
2022-11-10T16:19:41.757Z,16.05
2022-11-10T16:29:45.873Z,13.70
2022-11-10T16:34:48.468Z,13.68
2022-11-10T16:39:50.625Z,15.23
2022-11-10T16:45:55.952Z,29.00
2022-11-10T16:51:01.872Z,19.67
2022-11-10T16:56:04.949Z,20.33
2022-11-10T17:01:20.941Z,29.73
2022-11-10T17:06:26.796Z,33.47
2022-11-10T17:11:29.052Z,61.13
2022-11-10T17:16:44.870Z,87.53
2022-11-10T17:21:50.104Z,44.70
2022-11-10T17:26:52.208Z,74.45
2022-11-10T17:31:56.171Z,53.72
2022-11-10T17:36:59.382Z,27.70
2022-11-10T17:42:02.242Z,27.13
2022-11-10T17:47:04.484Z,30.92
2022-11-10T17:57:18.144Z,31.80
2022-11-10T18:07:51.740Z,29.88
2022-11-10T18:12:55.261Z,25.73
2022-11-10T18:18:00.924Z,32.35
2022-11-10T18:23:14.725Z,82.93
2022-11-10T18:28:49.824Z,61.60
2022-11-10T18:58:00.466Z,18.42
2022-11-10T19:08:25.372Z,53.80
2022-11-10T19:13:36.521Z,48.58
2022-11-10T19:18:52.174Z,41.33
2022-11-10T19:24:03.508Z,44.42
2022-11-10T19:29:06.855Z,25.58
2022-11-10T19:34:09.925Z,25.38
2022-11-10T19:39:17.558Z,21.58
2022-11-10T19:44:20.604Z,21.15
2022-11-10T19:49:23.595Z,18.80
2022-11-10T19:54:25.740Z,17.33
2022-11-10T19:59:27.895Z,20.33
2022-11-10T20:04:32.727Z,20.38
2022-11-10T20:09:35.082Z,19.30
2022-11-10T20:19:41.003Z,20.52
2022-11-10T20:24:49.892Z,23.27
2022-11-10T20:29:55.046Z,21.55
2022-11-10T20:34:58.036Z,23.23
2022-11-10T20:40:00.964Z,24.95
2022-11-10T20:45:03.972Z,25.13
2022-11-10T20:50:13.062Z,29.52
2022-11-10T20:55:18.532Z,26.25
2022-11-10T21:00:23.030Z,25.88
2022-11-10T21:05:31.682Z,18.33
2022-11-10T21:10:41.543Z,27.75
2022-11-10T21:15:59.630Z,24.15
2022-11-10T21:21:07.906Z,25.38
2022-11-10T21:26:10.793Z,27.60
2022-11-10T21:31:15.298Z,26.50
2022-11-10T21:36:26.924Z,36.78
2022-11-10T21:41:37.982Z,24.92
2022-11-10T21:46:52.731Z,27.58
2022-11-10T21:51:55.128Z,23.10
2022-11-10T21:56:57.653Z,26.13
2022-11-10T22:02:04.082Z,26.15
2022-11-10T22:07:26.604Z,24.48
2022-11-10T22:12:48.754Z,24.38
2022-11-10T22:18:09.351Z,27.00
2022-11-10T22:23:13.276Z,23.50
2022-11-10T22:28:15.385Z,20.92
2022-11-10T22:33:33.352Z,21.33
2022-11-10T22:38:37.345Z,23.35
2022-11-10T22:44:10.559Z,22.13
2022-11-10T22:49:17.531Z,24.67
2022-11-10T22:54:23.180Z,20.42
2022-11-10T22:59:25.570Z,21.65
2022-11-10T23:09:30.730Z,22.40
2022-11-10T23:14:33.014Z,21.38
2022-11-10T23:19:35.352Z,20.15
2022-11-10T23:24:37.427Z,20.75
2022-11-10T23:29:39.581Z,20.05
2022-11-10T23:34:42.198Z,20.33
2022-11-10T23:39:44.385Z,22.08
2022-11-10T23:44:46.426Z,23.58
2022-11-10T23:49:48.415Z,22.85
2022-11-10T23:54:50.457Z,20.13
2022-11-10T23:59:52.595Z,22.80
